Telsiai, Lithuania

6:28 PM EEST on July 31, 2015 (GMT +0300)
Siauliai International | | Change Station
CLOSE
Current Station
Airport
Location: Siauliai,
Elevation: 443 ft
Nearby Weather Stations

Elev 443 ft 55.89 °N, 23.40 °E | Updated 8 minutes ago

Mostly Cloudy
Mostly Cloudy
63 °F
Feels Like 63 °F
N
13
Wind Variable Wind from SW

Today
High -- | Low -- °F
--% Chance of Precip.
Yesterday
High -- | Low -- °F
Precip. -- in
5:32 AM 9:41 PM
Full, 100% visible
Pressure 29.86 in
Visibility 6.2 miles
Clouds Scattered Clouds 1100 ft
Mostly Cloudy 1300 ft
Mostly Cloudy 9200 ft
Dew Point 57 °F
Humidity 82%
Rainfall 0.00 in
Snow Depth Not available.
UV 1 out of 12
Pollen Not available.
Air Quality Not available.
Flu Activity Not available.
METAR EYSA 311520Z 23011KT 9999 SCT011 BKN013 BKN092 17/14 Q1011

More Conditions Fewer Conditions

Pressure 29.86 in
Visibility 6.2 miles
Clouds Scattered Clouds 1100 ft
Mostly Cloudy 1300 ft
Mostly Cloudy 9200 ft
Dew Point 57 °F
Humidity 82%
Rainfall 0.00 in
Snow Depth Not available.
UV 1 out of 12
Pollen Not available.
Air Quality Not available.
Flu Activity Not available.
METAR EYSA 311520Z 23011KT 9999 SCT011 BKN013 BKN092 17/14 Q1011

More Conditions Fewer Conditions

10-Day Weather Forecast

×

Almanac

Astronomy

Jul. 31, 2015 Rise Set
Actual Time
Civil Twilight
Nautical Twilight
Astronomical Twilight
Moon
Length of Visible Light
Length of Day
Tomorrow will be .
, % of the Moon is Illuminated

Today's Extremes

Country Highs Country Lows

Community

WunderPhotos

Upload Photos

1,842,670 photos uploaded!

WunderBlogs® & News

Nearby

Air Quality

  Air Quality AQ Index Pollutant
Not available.

Snow Depth

Station Depth Elevation

Earthquake Activity

City Distance Mag. Time & Date
Minimum magnitude displayed is 2.5.

Coastal Water Temperatures

Place Temperature

Stations

Nearby Weather Stations

Station Location Temp. Windchill Dew Point Humidity Wind Precip. Elev Updated Type